Time;durP1;ratioP1;P1;durP2;ratioP2;P2;SDS_P1;SDS_P2;PMS_P1;PMS_P2;Temp;Humidity;BMP_temperature;BMP_pressure;BME280_temperature;BME280_humidity;BME280_pressure;Samples;Min_cycle;Max_cycle;Signal;HPM_P1;HPM_P2
2021/10/16 00:01:28;;;;;;;9.85;6.75;;;230.90;2252.80;;;;;;5095181;28;20032;-81
2021/10/16 00:03:54;;;;;;;8.95;6.78;;;230.90;2252.80;;;;;;5095374;28;20031;-81
2021/10/16 00:06:20;;;;;;;9.98;7.82;;;230.90;2252.80;;;;;;5093625;28;20458;-81
2021/10/16 00:08:46;;;;;;;10.07;7.15;;;230.90;2252.80;;;;;;5093623;28;20039;-81
2021/10/16 00:11:13;;;;;;;11.70;7.53;;;231.00;2252.80;;;;;;5093797;28;20020;-81
2021/10/16 00:13:39;;;;;;;8.73;5.93;;;230.90;2252.80;;;;;;5093355;28;20024;-82
2021/10/16 00:16:06;;;;;;;10.07;6.70;;;230.90;2252.80;;;;;;5093568;28;20035;-83
2021/10/16 00:18:32;;;;;;;8.57;5.65;;;230.90;2252.80;;;;;;5093370;28;20040;-80
2021/10/16 00:20:59;;;;;;;7.95;5.90;;;230.90;2252.80;;;;;;5093656;28;20035;-80
2021/10/16 00:23:26;;;;;;;6.75;4.50;;;230.80;2252.80;;;;;;5093666;28;20426;-81
2021/10/16 00:25:52;;;;;;;9.07;6.85;;;230.90;2252.80;;;;;;5093330;28;20020;-82
2021/10/16 00:28:18;;;;;;;14.50;9.05;;;230.90;2252.80;;;;;;5093285;28;20448;-82
2021/10/16 00:30:44;;;;;;;10.00;6.85;;;230.80;2252.80;;;;;;5093259;28;20122;-83
2021/10/16 00:33:10;;;;;;;9.98;7.13;;;230.90;2252.80;;;;;;5093095;28;20102;-80
2021/10/16 00:35:36;;;;;;;7.70;5.32;;;230.90;2252.80;;;;;;5093061;28;20048;-84
2021/10/16 00:38:02;;;;;;;9.45;6.55;;;230.80;2252.80;;;;;;5093239;28;20032;-80
2021/10/16 00:40:27;;;;;;;6.68;4.55;;;230.80;2252.80;;;;;;5094056;28;20039;-82
2021/10/16 00:42:55;;;;;;;6.30;4.88;;;230.80;2252.80;;;;;;5093121;28;20024;-82
2021/10/16 00:45:22;;;;;;;6.75;4.15;;;230.80;2252.80;;;;;;5093084;28;20027;-81
2021/10/16 00:47:48;;;;;;;5.38;3.85;;;230.70;2252.80;;;;;;5093900;28;20030;-81
2021/10/16 00:50:16;;;;;;;7.22;5.03;;;230.70;2252.80;;;;;;5094456;28;20058;-81
2021/10/16 00:52:43;;;;;;;6.78;4.70;;;230.80;2252.80;;;;;;5094165;28;20024;-80
2021/10/16 00:55:11;;;;;;;7.45;5.03;;;230.70;2252.80;;;;;;5092799;28;20024;-82
2021/10/16 00:57:37;;;;;;;7.68;5.18;;;230.70;2252.80;;;;;;5092839;28;20057;-83
2021/10/16 01:00:06;;;;;;;6.03;4.63;;;230.70;2252.80;;;;;;5093950;28;20432;-80
2021/10/16 01:02:33;;;;;;;4.97;3.67;;;230.70;2252.80;;;;;;5093943;28;20024;-81
2021/10/16 01:04:59;;;;;;;6.38;3.83;;;230.70;2252.80;;;;;;5092920;28;20020;-82
2021/10/16 01:07:26;;;;;;;11.50;10.30;;;230.70;2252.80;;;;;;5093401;28;20206;-82
2021/10/16 01:09:52;;;;;;;17.42;15.63;;;230.70;2252.80;;;;;;5091753;28;20036;-83
2021/10/16 01:12:18;;;;;;;32.17;28.98;;;205.70;2252.80;;;;;;5093970;28;20020;-81
2021/10/16 01:14:57;;;;;;;36.58;32.83;;;230.70;2252.80;;;;;;5092476;28;20520;-80
2021/10/16 01:17:24;;;;;;;16.95;15.27;;;230.60;2252.80;;;;;;5094436;28;20505;-82
2021/10/16 01:19:57;;;;;;;17.38;14.38;;;230.70;2252.80;;;;;;5092535;28;20058;-82
2021/10/16 01:22:24;;;;;;;7.78;4.90;;;230.70;2252.80;;;;;;5092476;28;20086;-83
2021/10/16 01:24:51;;;;;;;5.88;3.78;;;230.70;2252.80;;;;;;5092764;28;20077;-80
2021/10/16 01:27:18;;;;;;;4.32;2.95;;;230.70;2252.80;;;;;;5093971;28;20020;-82
2021/10/16 01:29:45;;;;;;;34.25;28.08;;;230.70;2252.80;;;;;;5092445;28;20038;-82
2021/10/16 01:32:12;;;;;;;30.33;26.05;;;230.70;2252.80;;;;;;5092372;28;20020;-82
2021/10/16 01:34:37;;;;;;;54.80;49.40;;;230.70;2252.80;;;;;;5092405;28;20547;-82
2021/10/16 01:37:03;;;;;;;29.90;21.67;;;230.70;2252.80;;;;;;5093722;28;20099;-79
2021/10/16 01:39:30;;;;;;;20.40;14.25;;;230.70;2252.80;;;;;;5092371;28;20038;-80
2021/10/16 01:41:56;;;;;;;18.65;13.27;;;230.70;2252.80;;;;;;5092452;28;20078;-83
2021/10/16 01:44:22;;;;;;;14.73;9.63;;;230.80;2252.80;;;;;;5092094;28;20517;-80
2021/10/16 01:46:48;;;;;;;17.50;11.95;;;230.80;2252.80;;;;;;5092630;28;20024;-80
2021/10/16 01:49:16;;;;;;;9.82;6.32;;;230.80;2252.80;;;;;;5093755;28;20456;-80
2021/10/16 01:51:44;;;;;;;6.97;4.72;;;230.80;2252.80;;;;;;5092265;28;20078;-82
2021/10/16 01:54:10;;;;;;;6.95;4.20;;;230.80;2252.80;;;;;;5092406;28;20020;-83
2021/10/16 01:56:37;;;;;;;5.82;4.20;;;230.80;2252.80;;;;;;5093248;28;20487;-83
2021/10/16 01:59:18;;;;;;;4.63;3.30;;;230.80;2252.80;;;;;;5092292;28;20039;-80
2021/10/16 02:01:45;;;;;;;5.93;3.92;;;230.70;2252.80;;;;;;5092471;28;20127;-82
2021/10/16 02:04:11;;;;;;;6.15;4.15;;;230.70;2252.80;;;;;;5092357;28;20512;-81
2021/10/16 02:06:38;;;;;;;7.05;3.42;;;230.80;2252.80;;;;;;5092294;28;20059;-82
2021/10/16 02:09:04;;;;;;;7.35;3.08;;;230.80;2252.80;;;;;;5092149;28;20024;-81
2021/10/16 02:11:31;;;;;;;5.07;3.67;;;230.80;2252.80;;;;;;5092579;28;20036;-80
2021/10/16 02:13:58;;;;;;;4.22;2.78;;;230.70;2252.80;;;;;;5092323;28;20024;-83
2021/10/16 02:16:24;;;;;;;6.05;3.63;;;230.70;2252.80;;;;;;5092268;28;20024;-80
2021/10/16 02:18:50;;;;;;;8.65;4.93;;;230.60;2252.80;;;;;;5091843;28;20119;-82
2021/10/16 02:21:16;;;;;;;7.10;4.57;;;230.70;2252.80;;;;;;5095349;28;20122;-82
2021/10/16 02:23:42;;;;;;;6.28;4.30;;;230.70;2252.80;;;;;;5095750;28;20069;-79
2021/10/16 02:26:08;;;;;;;6.05;4.20;;;230.70;2252.80;;;;;;5095559;28;20024;-82
2021/10/16 02:28:34;;;;;;;5.72;3.67;;;230.70;2252.80;;;;;;5095845;28;20115;-82
2021/10/16 02:31:00;;;;;;;6.35;3.83;;;230.70;2252.80;;;;;;5095812;28;20050;-82
2021/10/16 02:33:26;;;;;;;6.97;4.40;;;230.70;2252.80;;;;;;5095095;28;20028;-79
2021/10/16 02:35:51;;;;;;;6.35;3.58;;;230.70;2252.80;;;;;;5095520;28;20071;-82
2021/10/16 02:38:17;;;;;;;5.55;3.78;;;230.70;2252.80;;;;;;5096842;28;20471;-81
2021/10/16 02:40:43;;;;;;;7.68;4.57;;;230.70;2252.80;;;;;;5095298;28;20115;-82
2021/10/16 02:43:09;;;;;;;5.35;3.83;;;230.70;2252.80;;;;;;5095601;28;20026;-79
2021/10/16 02:45:35;;;;;;;6.03;4.32;;;230.70;2252.80;;;;;;5096069;28;20028;-81
2021/10/16 02:48:01;;;;;;;5.30;3.75;;;230.70;2252.80;;;;;;5095034;28;20032;-81
2021/10/16 02:50:26;;;;;;;5.20;3.65;;;230.70;2252.80;;;;;;5095349;28;20160;-80
2021/10/16 02:52:52;;;;;;;5.32;3.53;;;230.70;2252.80;;;;;;5094754;28;20024;-80
2021/10/16 02:55:18;;;;;;;6.82;4.18;;;230.70;2252.80;;;;;;5096626;28;20110;-81
2021/10/16 02:57:44;;;;;;;5.72;3.80;;;230.60;2252.80;;;;;;5095083;28;20028;-83
2021/10/16 03:00:11;;;;;;;5.95;4.10;;;230.70;2252.80;;;;;;5094854;28;20380;-81
2021/10/16 03:02:37;;;;;;;6.90;3.53;;;230.70;2252.80;;;;;;5095122;28;20020;-80
2021/10/16 03:05:04;;;;;;;6.22;4.10;;;230.40;2252.80;;;;;;5095167;28;20551;-83
2021/10/16 03:07:30;;;;;;;9.52;4.03;;;230.70;2252.80;;;;;;5094743;28;20475;-79
2021/10/16 03:09:56;;;;;;;7.28;4.68;;;230.70;2252.80;;;;;;5095946;28;20035;-80
2021/10/16 03:12:22;;;;;;;5.43;4.25;;;230.90;2252.80;;;;;;5096274;28;20034;-80
2021/10/16 03:14:48;;;;;;;4.55;3.25;;;230.60;2252.80;;;;;;5094694;28;20024;-83
2021/10/16 03:17:14;;;;;;;5.30;3.45;;;230.70;2252.80;;;;;;5094878;28;20024;-83
2021/10/16 03:19:40;;;;;;;5.18;3.38;;;230.60;2252.80;;;;;;5095877;28;20035;-82
2021/10/16 03:22:07;;;;;;;5.35;3.47;;;230.60;2252.80;;;;;;5095715;28;20032;-81
2021/10/16 03:24:34;;;;;;;6.38;3.83;;;230.60;2252.80;;;;;;5094639;28;20456;-81
2021/10/16 03:27:00;;;;;;;4.43;2.85;;;230.50;2252.80;;;;;;5095912;28;20066;-81
2021/10/16 03:29:25;;;;;;;5.82;3.55;;;230.70;2252.80;;;;;;5094176;28;20395;-81
2021/10/16 03:31:51;;;;;;;6.10;3.97;;;230.70;2252.80;;;;;;5093606;28;20058;-80
2021/10/16 03:34:17;;;;;;;12.98;4.75;;;230.70;2252.80;;;;;;5094255;28;20399;-79
2021/10/16 03:36:44;;;;;;;4.90;3.42;;;230.60;2252.80;;;;;;5094250;28;20107;-81
2021/10/16 03:39:09;;;;;;;6.00;4.20;;;230.70;2252.80;;;;;;5094322;28;20085;-81
2021/10/16 03:41:35;;;;;;;5.10;3.50;;;230.70;2252.80;;;;;;5095355;28;20434;-80
2021/10/16 03:44:01;;;;;;;4.72;3.08;;;230.70;2252.80;;;;;;5094287;28;20024;-82
2021/10/16 03:46:27;;;;;;;6.05;3.88;;;230.70;2252.80;;;;;;5094310;28;20068;-83
2021/10/16 03:48:53;;;;;;;5.47;3.20;;;230.70;2252.80;;;;;;5093956;28;20126;-82
2021/10/16 03:51:19;;;;;;;4.68;3.17;;;230.70;2252.80;;;;;;5094055;28;20024;-83
2021/10/16 03:53:44;;;;;;;5.15;3.30;;;230.70;2252.80;;;;;;5094046;28;20020;-81
2021/10/16 03:56:10;;;;;;;5.55;3.75;;;230.70;2252.80;;;;;;5093752;28;20027;-80
2021/10/16 03:58:36;;;;;;;6.40;3.70;;;230.70;2252.80;;;;;;5093770;28;20055;-81
2021/10/16 04:01:03;;;;;;;4.88;3.80;;;230.70;2252.80;;;;;;5094910;28;20070;-81
2021/10/16 04:03:29;;;;;;;5.20;3.63;;;230.70;2252.80;;;;;;5094725;28;20024;-80
2021/10/16 04:05:55;;;;;;;4.63;3.28;;;230.70;2252.80;;;;;;5093751;28;20051;-79
2021/10/16 04:08:22;;;;;;;6.18;3.70;;;230.70;2252.80;;;;;;5094838;28;20464;-81
2021/10/16 04:10:49;;;;;;;5.75;3.65;;;230.70;2252.80;;;;;;5094659;28;20028;-80
2021/10/16 04:13:15;;;;;;;3.95;2.88;;;230.80;2252.80;;;;;;5095153;28;20047;-81
2021/10/16 04:15:41;;;;;;;4.32;3.10;;;230.80;2252.80;;;;;;5094631;28;20048;-81
2021/10/16 04:18:07;;;;;;;25.70;15.57;;;230.70;2252.80;;;;;;5093189;28;20471;-81
2021/10/16 04:20:33;;;;;;;22.98;13.65;;;230.70;2252.80;;;;;;5093476;28;20372;-78
2021/10/16 04:22:59;;;;;;;59.63;27.42;;;205.70;2252.80;;;;;;5094416;28;20024;-81
2021/10/16 04:25:25;;;;;;;83.88;34.78;;;230.80;2252.80;;;;;;5092988;28;20024;-79
2021/10/16 04:27:52;;;;;;;78.60;44.67;;;230.70;2252.80;;;;;;5093359;28;20069;-79
2021/10/16 04:30:17;;;;;;;34.95;27.95;;;230.70;2252.80;;;;;;5093348;28;20020;-80
2021/10/16 04:32:43;;;;;;;28.58;23.42;;;230.80;2252.80;;;;;;5093128;28;20467;-79
2021/10/16 04:35:10;;;;;;;11.50;9.63;;;230.70;2252.80;;;;;;5094602;28;20396;-79
2021/10/16 04:37:36;;;;;;;9.05;8.07;;;230.70;2252.80;;;;;;5092959;28;20391;-80
2021/10/16 04:40:14;;;;;;;7.40;6.60;;;230.70;2252.80;;;;;;5093088;28;20039;-79
2021/10/16 04:42:41;;;;;;;6.75;5.97;;;230.70;2252.80;;;;;;5092925;28;20039;-78
2021/10/16 04:45:08;;;;;;;5.20;4.50;;;230.70;2252.80;;;;;;5092797;28;20024;-79
2021/10/16 04:47:34;;;;;;;6.85;5.63;;;230.80;2252.80;;;;;;5093081;28;20115;-79
2021/10/16 04:50:00;;;;;;;10.32;6.55;;;230.80;2252.80;;;;;;5093991;28;20179;-79
2021/10/16 04:52:26;;;;;;;9.93;6.07;;;230.80;2252.80;;;;;;5092719;28;20119;-78
2021/10/16 04:54:52;;;;;;;6.90;5.65;;;230.80;2252.80;;;;;;5094060;28;20044;-79
2021/10/16 04:57:18;;;;;;;8.25;6.90;;;230.80;2252.80;;;;;;5092835;28;20105;-81
2021/10/16 04:59:44;;;;;;;16.38;11.00;;;230.80;2252.80;;;;;;5093798;28;20039;-80
2021/10/16 05:02:10;;;;;;;19.00;11.98;;;230.80;2252.80;;;;;;5092724;28;20439;-79
2021/10/16 05:04:35;;;;;;;21.63;18.30;;;230.80;2252.80;;;;;;5092728;28;20048;-80
2021/10/16 05:07:01;;;;;;;22.58;16.33;;;230.90;2252.80;;;;;;5092547;28;20074;-79
2021/10/16 05:09:27;;;;;;;20.85;15.55;;;230.80;2252.80;;;;;;5092653;28;20032;-80
2021/10/16 05:11:53;;;;;;;19.05;13.48;;;230.80;2252.80;;;;;;5094032;28;20035;-80
2021/10/16 05:14:19;;;;;;;16.75;11.82;;;230.80;2252.80;;;;;;5092454;28;20349;-82
2021/10/16 05:16:44;;;;;;;13.05;8.45;;;230.80;2252.80;;;;;;5092650;28;20082;-78
2021/10/16 05:19:10;;;;;;;17.48;10.00;;;230.80;2252.80;;;;;;5093757;28;20060;-80
2021/10/16 05:21:36;;;;;;;21.58;16.23;;;230.80;2252.80;;;;;;5092437;28;20073;-80
2021/10/16 05:24:02;;;;;;;19.55;12.35;;;230.80;2252.80;;;;;;5092543;28;20410;-79
2021/10/16 05:26:28;;;;;;;37.15;20.42;;;230.80;2252.80;;;;;;5092250;28;20035;-78
2021/10/16 05:28:56;;;;;;;13.27;8.63;;;230.70;2252.80;;;;;;5092537;28;20532;-80
2021/10/16 05:31:23;;;;;;;9.55;7.05;;;230.80;2252.80;;;;;;5092593;28;20028;-81
2021/10/16 05:33:49;;;;;;;9.70;7.45;;;230.70;2252.80;;;;;;5092082;28;20410;-79
2021/10/16 05:36:15;;;;;;;8.27;5.70;;;230.80;2252.80;;;;;;5092368;28;20020;-80
2021/10/16 05:38:41;;;;;;;13.40;8.82;;;230.80;2252.80;;;;;;5093336;28;20062;-80
2021/10/16 05:41:07;;;;;;;8.68;6.80;;;230.80;2252.80;;;;;;5092170;28;20039;-80
2021/10/16 05:43:33;;;;;;;8.25;6.05;;;230.80;2252.80;;;;;;5092430;28;20020;-81
2021/10/16 05:46:01;;;;;;;11.48;8.10;;;230.90;2252.80;;;;;;5092584;28;20024;-79
2021/10/16 05:48:30;;;;;;;12.13;8.13;;;230.90;2252.80;;;;;;5092011;28;20486;-82
2021/10/16 05:50:56;;;;;;;9.88;6.72;;;230.90;2252.80;;;;;;5092468;28;20102;-79
2021/10/16 05:53:22;;;;;;;10.23;5.60;;;230.80;2252.80;;;;;;5092256;28;20020;-80
2021/10/16 05:55:48;;;;;;;7.28;4.93;;;230.90;2252.80;;;;;;5094581;28;20028;-79
2021/10/16 05:58:14;;;;;;;6.22;4.53;;;230.80;2252.80;;;;;;5097741;28;20403;-80
2021/10/16 06:00:39;;;;;;;6.57;4.30;;;230.90;2252.80;;;;;;5097749;28;20032;-81
2021/10/16 06:03:05;;;;;;;8.10;5.90;;;230.80;2252.80;;;;;;5095864;28;20476;-81
2021/10/16 06:05:31;;;;;;;7.10;4.78;;;230.80;2252.80;;;;;;5096075;28;20024;-81
2021/10/16 06:07:57;;;;;;;8.80;5.20;;;230.90;2252.80;;;;;;5096099;28;20119;-78
2021/10/16 06:10:22;;;;;;;9.45;6.68;;;230.80;2252.80;;;;;;5095390;28;20144;-80
2021/10/16 06:12:48;;;;;;;8.20;5.20;;;230.90;2252.80;;;;;;5095953;28;20024;-81
2021/10/16 06:15:14;;;;;;;10.60;8.30;;;230.90;2252.80;;;;;;5097339;28;20036;-81
2021/10/16 06:17:40;;;;;;;13.63;9.25;;;230.90;2252.80;;;;;;5095610;28;20509;-79
2021/10/16 06:20:07;;;;;;;11.10;7.75;;;230.90;2252.80;;;;;;5095814;28;20036;-79
2021/10/16 06:22:32;;;;;;;7.63;6.57;;;230.90;2252.80;;;;;;5095502;28;20036;-78
2021/10/16 06:24:58;;;;;;;8.63;6.78;;;230.90;2252.80;;;;;;5095741;28;20463;-80
2021/10/16 06:27:26;;;;;;;7.68;5.75;;;230.90;2252.80;;;;;;5096972;28;20027;-80
2021/10/16 06:29:52;;;;;;;14.65;11.02;;;230.90;2252.80;;;;;;5095316;28;20028;-81
2021/10/16 06:32:18;;;;;;;12.32;7.25;;;230.90;2252.80;;;;;;5095627;28;20028;-78
2021/10/16 06:34:44;;;;;;;7.22;5.45;;;230.90;2252.80;;;;;;5095376;28;20058;-78
2021/10/16 06:37:10;;;;;;;12.32;11.02;;;231.00;2252.80;;;;;;5095160;28;20107;-80
2021/10/16 06:39:36;;;;;;;11.75;6.15;;;231.00;2252.80;;;;;;5095159;28;20035;-80
2021/10/16 06:42:02;;;;;;;8.50;6.28;;;231.00;2252.80;;;;;;5096313;28;20055;-79
2021/10/16 06:44:28;;;;;;;9.38;6.15;;;231.00;2252.80;;;;;;5095223;28;20035;-81
2021/10/16 06:46:54;;;;;;;8.55;6.57;;;231.00;2252.80;;;;;;5095353;28;20424;-80
2021/10/16 06:49:20;;;;;;;6.70;4.78;;;231.00;2252.80;;;;;;5095306;28;20035;-79
2021/10/16 06:51:45;;;;;;;7.75;5.03;;;231.00;2252.80;;;;;;5096252;28;20029;-79
2021/10/16 06:54:12;;;;;;;9.60;7.40;;;231.00;2252.80;;;;;;5095225;28;20028;-80
2021/10/16 06:56:38;;;;;;;7.88;6.20;;;231.10;2252.80;;;;;;5095114;28;20082;-80
2021/10/16 06:59:04;;;;;;;10.98;8.77;;;231.00;2252.80;;;;;;5094630;28;20426;-81
2021/10/16 07:01:30;;;;;;;8.77;6.45;;;231.10;2252.80;;;;;;5094960;28;20028;-79
2021/10/16 07:03:56;;;;;;;12.13;9.55;;;231.20;2252.80;;;;;;5094971;28;20023;-80
2021/10/16 07:06:22;;;;;;;9.02;6.13;;;231.20;2252.80;;;;;;5094566;28;20054;-80
2021/10/16 07:08:48;;;;;;;10.02;8.30;;;231.20;2252.80;;;;;;5094967;28;20024;-78
2021/10/16 07:11:14;;;;;;;12.48;10.23;;;231.10;2252.80;;;;;;5094869;28;20028;-82
2021/10/16 07:13:39;;;;;;;10.52;8.70;;;231.20;2252.80;;;;;;5094594;28;20379;-80
2021/10/16 07:16:05;;;;;;;12.38;9.23;;;231.20;2252.80;;;;;;5094898;28;20415;-80
2021/10/16 07:18:31;;;;;;;16.10;9.82;;;231.20;2252.80;;;;;;5095630;28;20471;-80
2021/10/16 07:20:57;;;;;;;14.00;10.43;;;231.20;2252.80;;;;;;5094684;28;20092;-79
2021/10/16 07:23:26;;;;;;;13.15;11.02;;;231.20;2252.80;;;;;;5094534;28;20027;-78
2021/10/16 07:25:57;;;;;;;14.25;10.77;;;231.20;2252.80;;;;;;5095309;28;20467;-82
2021/10/16 07:28:23;;;;;;;12.40;9.48;;;231.20;2252.80;;;;;;5096091;28;20157;-80
2021/10/16 07:30:49;;;;;;;14.13;11.85;;;231.30;2252.80;;;;;;5094600;28;20024;-79
2021/10/16 07:33:15;;;;;;;10.77;7.85;;;231.30;2252.80;;;;;;5094256;28;20028;-78
2021/10/16 07:35:43;;;;;;;18.92;12.52;;;256.00;2252.80;;;;;;5094469;28;20056;-79
2021/10/16 07:38:09;;;;;;;17.23;10.73;;;231.30;2252.80;;;;;;5094257;28;20036;-80
2021/10/16 07:40:35;;;;;;;9.50;7.65;;;256.50;2252.80;;;;;;5094041;28;20501;-79
2021/10/16 07:43:01;;;;;;;8.93;6.80;;;231.30;2252.80;;;;;;5094129;28;20035;-75
2021/10/16 07:45:27;;;;;;;9.82;7.85;;;231.30;2252.80;;;;;;5095343;28;20460;-76
2021/10/16 07:47:54;;;;;;;10.85;8.70;;;256.00;2252.80;;;;;;5093777;28;20031;-76
2021/10/16 07:50:20;;;;;;;10.35;7.40;;;256.00;2252.80;;;;;;5093984;28;20034;-76
2021/10/16 07:52:45;;;;;;;13.10;11.68;;;256.00;2252.80;;;;;;5093974;28;20036;-78
2021/10/16 07:55:11;;;;;;;19.27;16.40;;;256.00;2252.80;;;;;;5093635;28;20055;-75
2021/10/16 07:57:38;;;;;;;36.22;27.15;;;256.00;2252.80;;;;;;5094933;28;20039;-76
2021/10/16 08:00:07;;;;;;;56.97;36.72;;;256.00;2252.80;;;;;;5093700;28;20107;-74
2021/10/16 08:02:33;;;;;;;63.28;48.72;;;256.00;2252.80;;;;;;5093404;28;20028;-77
2021/10/16 08:05:01;;;;;;;18.08;14.60;;;256.10;2252.80;;;;;;5094680;28;20416;-75
2021/10/16 08:07:30;;;;;;;31.45;28.17;;;256.10;2252.80;;;;;;5093356;28;20399;-77
2021/10/16 08:09:56;;;;;;;30.92;25.15;;;256.10;2252.80;;;;;;5094535;28;20139;-75
2021/10/16 08:12:23;;;;;;;20.95;15.70;;;256.10;2252.80;;;;;;5093537;28;20081;-77
2021/10/16 08:14:49;;;;;;;28.25;24.20;;;256.10;2252.80;;;;;;5093201;28;20398;-79
2021/10/16 08:17:15;;;;;;;17.45;15.23;;;256.20;2252.80;;;;;;5093102;28;20031;-76
2021/10/16 08:19:40;;;;;;;20.33;17.90;;;256.10;2252.80;;;;;;5093399;28;20024;-77
2021/10/16 08:22:08;;;;;;;13.10;10.95;;;256.20;2252.80;;;;;;5094169;28;20053;-76
2021/10/16 08:24:34;;;;;;;14.20;11.90;;;256.20;2252.80;;;;;;5093150;28;20151;-76
2021/10/16 08:27:00;;;;;;;11.25;9.95;;;256.20;2252.80;;;;;;5093386;28;20070;-77
2021/10/16 08:29:26;;;;;;;15.68;12.10;;;256.20;2252.80;;;;;;5094578;28;20035;-76
2021/10/16 08:31:52;;;;;;;20.05;15.82;;;256.20;2252.80;;;;;;5094299;28;20016;-77
2021/10/16 08:34:18;;;;;;;27.83;20.02;;;256.20;2252.80;;;;;;5094249;28;20472;-75
2021/10/16 08:36:44;;;;;;;34.17;30.48;;;256.30;2252.80;;;;;;5092772;28;20031;-78
2021/10/16 08:39:10;;;;;;;19.55;17.02;;;256.20;2252.80;;;;;;5093179;28;20028;-78
2021/10/16 08:41:36;;;;;;;15.07;11.02;;;256.30;2252.80;;;;;;5093151;28;20040;-78
2021/10/16 08:44:02;;;;;;;14.27;11.55;;;256.30;2252.80;;;;;;5092790;28;20024;-80
2021/10/16 08:46:30;;;;;;;12.15;9.90;;;256.30;2252.80;;;;;;5093064;28;20020;-76
2021/10/16 08:49:02;;;;;;;16.63;12.48;;;256.30;2252.80;;;;;;5092992;28;20028;-77
2021/10/16 08:51:28;;;;;;;15.40;11.30;;;256.30;2252.80;;;;;;5092738;28;20024;-78
2021/10/16 08:53:54;;;;;;;11.82;8.60;;;256.20;2252.80;;;;;;5092901;28;20034;-75
2021/10/16 08:56:23;;;;;;;12.68;9.63;;;256.30;2252.80;;;;;;5092623;28;20024;-76
2021/10/16 08:58:51;;;;;;;10.82;9.27;;;256.40;2252.80;;;;;;5092701;28;20031;-75
2021/10/16 09:01:17;;;;;;;12.32;9.68;;;256.30;2252.80;;;;;;5092815;28;20119;-79
2021/10/16 09:03:47;;;;;;;13.75;9.30;;;256.40;2252.80;;;;;;5093795;28;20024;-76
2021/10/16 09:06:24;;;;;;;23.33;18.13;;;256.40;2252.80;;;;;;5092741;28;20357;-77
2021/10/16 09:08:58;;;;;;;20.38;14.98;;;256.40;2252.80;;;;;;5092739;28;20028;-75
2021/10/16 09:11:38;;;;;;;16.67;14.60;;;256.50;2252.80;;;;;;5093714;28;20016;-76
2021/10/16 09:14:20;;;;;;;19.85;15.07;;;256.50;2252.80;;;;;;5092789;28;20464;-81
2021/10/16 09:16:53;;;;;;;15.88;13.23;;;256.50;2252.80;;;;;;5092923;28;20028;-78
2021/10/16 09:19:22;;;;;;;16.00;10.52;;;256.50;2252.80;;;;;;5092397;28;20464;-81
2021/10/16 09:21:56;;;;;;;16.30;11.35;;;256.50;2252.80;;;;;;5092855;28;20028;-82
2021/10/16 09:24:34;;;;;;;13.93;11.02;;;256.50;2252.80;;;;;;5092929;28;20039;-78
2021/10/16 09:27:06;;;;;;;14.82;11.82;;;256.50;2252.80;;;;;;5093061;28;20494;-82
2021/10/16 09:29:35;;;;;;;14.50;11.65;;;256.50;2252.80;;;;;;5094746;28;20031;-78
2021/10/16 09:32:04;;;;;;;15.38;11.43;;;256.50;2252.80;;;;;;5098101;28;20020;-81
2021/10/16 09:34:31;;;;;;;38.33;29.40;;;256.60;2252.80;;;;;;5098158;28;20047;-81
2021/10/16 09:37:03;;;;;;;24.27;19.58;;;256.50;2252.80;;;;;;5096927;28;20024;-80
2021/10/16 09:39:30;;;;;;;16.08;12.50;;;256.60;2252.80;;;;;;5096672;28;20042;-78
2021/10/16 09:41:56;;;;;;;14.00;11.10;;;256.60;2252.80;;;;;;5096758;28;20386;-81
2021/10/16 09:44:29;;;;;;;14.02;11.27;;;256.60;2252.80;;;;;;5096756;28;20027;-80
2021/10/16 09:47:02;;;;;;;;;;;256.60;2252.80;;;;;;5096950;28;20036;-78
2021/10/16 09:49:33;;;;;;;17.35;11.30;;;256.60;2252.80;;;;;;5097932;28;19949;-81
2021/10/16 09:52:00;;;;;;;15.40;10.68;;;256.60;2252.80;;;;;;5099761;28;20047;-80
2021/10/16 09:54:27;;;;;;;17.60;12.60;;;256.60;2252.80;;;;;;5096425;28;20032;-80
2021/10/16 09:56:54;;;;;;;16.50;12.70;;;256.60;2252.80;;;;;;5097025;28;20027;-82
2021/10/16 09:59:20;;;;;;;22.13;15.32;;;256.60;2252.80;;;;;;5096701;28;20472;-81
2021/10/16 10:01:46;;;;;;;22.77;16.15;;;256.90;2252.80;;;;;;5097270;28;20028;-85
2021/10/16 10:04:14;;;;;;;23.10;18.00;;;256.80;2252.80;;;;;;5097521;28;20055;-79
2021/10/16 10:06:41;;;;;;;17.92;14.43;;;256.80;2252.80;;;;;;5097590;28;20109;-79
2021/10/16 10:09:07;;;;;;;17.20;11.60;;;256.80;2252.80;;;;;;5097376;28;20028;-83
2021/10/16 10:11:36;;;;;;;23.88;18.17;;;256.90;2252.80;;;;;;5096890;28;20028;-82
2021/10/16 10:14:03;;;;;;;31.17;23.33;;;256.90;2252.80;;;;;;5097227;28;20031;-81
2021/10/16 10:16:33;;;;;;;32.25;21.38;;;256.90;2252.80;;;;;;5096490;28;20028;-80
2021/10/16 10:19:04;;;;;;;21.75;14.95;;;281.70;2278.40;;;;;;5095982;28;20118;-82
2021/10/16 10:21:32;;;;;;;15.88;12.00;;;256.90;2252.80;;;;;;5096286;28;20031;-84
2021/10/16 10:24:00;;;;;;;16.70;13.27;;;256.90;2252.80;;;;;;5096090;28;20039;-78
2021/10/16 10:26:34;;;;;;;19.90;14.70;;;256.90;2252.80;;;;;;5108427;28;20030;-79
2021/10/16 10:29:06;;;;;;;22.60;15.60;;;256.90;2252.80;;;;;;5115557;28;20032;-81
2021/10/16 10:31:55;;;;;;;17.75;12.70;;;256.90;2252.80;;;;;;5112934;28;20020;-78
2021/10/16 10:34:34;;;;;;;21.60;18.75;;;256.80;2252.80;;;;;;5112219;28;20061;-77
2021/10/16 10:37:09;;;;;;;19.85;14.70;;;256.90;2252.80;;;;;;5111467;28;20027;-78
2021/10/16 10:39:35;;;;;;;12.88;9.85;;;256.90;2252.80;;;;;;5112805;28;20031;-78
2021/10/16 10:42:13;;;;;;;17.13;12.32;;;256.90;2252.80;;;;;;5107937;28;20028;-78
2021/10/16 10:44:42;;;;;;;16.13;11.40;;;256.90;2252.80;;;;;;5108568;28;20053;-77
2021/10/16 10:47:35;;;;;;;19.83;15.52;;;256.90;2252.80;;;;;;5108811;28;20043;-77
2021/10/16 10:50:05;;;;;;;25.10;18.73;;;281.60;2278.40;;;;;;5099494;28;20028;-82
2021/10/16 10:53:07;;;;;;;36.17;26.80;;;281.60;2278.40;;;;;;5096743;28;20107;-81
2021/10/16 10:55:56;;;;;;;28.63;20.77;;;281.60;2278.40;;;;;;5095268;28;20123;-79
2021/10/16 10:58:23;;;;;;;30.73;23.27;;;281.60;2278.40;;;;;;5095263;28;20348;-80
2021/10/16 11:00:51;;;;;;;31.60;23.33;;;281.70;2278.40;;;;;;5095343;28;20035;-78
2021/10/16 11:03:30;;;;;;;21.42;16.25;;;281.60;2278.40;;;;;;5095069;28;20078;-80
2021/10/16 11:06:14;;;;;;;26.83;18.35;;;281.70;2278.40;;;;;;5098230;28;20215;-77
2021/10/16 11:08:40;;;;;;;31.00;22.10;;;281.70;2278.40;;;;;;5098330;28;20028;-79
2021/10/16 11:11:06;;;;;;;30.80;21.05;;;281.60;2278.40;;;;;;5096831;28;20399;-80
2021/10/16 11:13:36;;;;;;;25.55;15.57;;;281.70;2278.40;;;;;;5095342;28;20030;-80
2021/10/16 11:16:06;;;;;;;25.05;18.63;;;281.80;2278.40;;;;;;5096478;28;20059;-77
2021/10/16 11:18:33;;;;;;;16.92;12.93;;;281.80;2278.40;;;;;;5103059;28;20047;-78
2021/10/16 11:21:17;;;;;;;22.65;16.05;;;281.80;2278.40;;;;;;5099245;28;20024;-81
2021/10/16 11:23:43;;;;;;;24.77;17.83;;;281.80;2278.40;;;;;;5095496;28;20456;-79
2021/10/16 11:26:12;;;;;;;22.83;17.10;;;281.80;2278.40;;;;;;5096265;28;20016;-81
2021/10/16 11:28:40;;;;;;;13.68;10.60;;;281.80;2278.40;;;;;;5096318;28;20058;-80
2021/10/16 11:31:07;;;;;;;25.83;19.70;;;281.70;2278.40;;;;;;5094553;28;20514;-78
2021/10/16 11:33:38;;;;;;;37.03;25.40;;;281.80;2278.40;;;;;;5094374;28;20024;-77
2021/10/16 11:36:05;;;;;;;26.55;16.95;;;281.80;2278.40;;;;;;5095888;28;20030;-79
2021/10/16 11:38:34;;;;;;;25.63;18.33;;;281.80;2278.40;;;;;;5095204;28;20035;-78
2021/10/16 11:41:02;;;;;;;24.52;16.48;;;281.80;2278.40;;;;;;5094613;28;20028;-83
2021/10/16 11:43:36;;;;;;;18.42;13.00;;;281.80;2278.40;;;;;;5095702;28;20108;-78
2021/10/16 11:46:04;;;;;;;18.15;14.27;;;281.70;2278.40;;;;;;5094523;28;20028;-80
2021/10/16 11:48:30;;;;;;;19.23;14.65;;;281.70;2278.40;;;;;;5094463;28;20020;-79
2021/10/16 11:50:57;;;;;;;19.90;15.70;;;281.70;2278.40;;;;;;5094545;28;20028;-79
2021/10/16 11:53:29;;;;;;;23.25;18.33;;;281.80;2278.40;;;;;;5093356;28;20118;-78
2021/10/16 11:56:05;;;;;;;22.67;18.43;;;281.80;2278.40;;;;;;5095416;28;20443;-82
2021/10/16 11:58:31;;;;;;;22.08;18.15;;;281.70;2278.40;;;;;;5094094;28;20467;-81
2021/10/16 12:01:02;;;;;;;38.20;31.05;;;281.70;2278.40;;;;;;5094255;28;20391;-79
2021/10/16 12:03:39;;;;;;;34.20;27.23;;;281.70;2278.40;;;;;;5094242;28;20024;-81
2021/10/16 12:06:10;;;;;;;31.17;21.70;;;281.70;2278.40;;;;;;5093869;28;20080;-78
2021/10/16 12:08:46;;;;;;;31.23;25.35;;;281.70;2278.40;;;;;;5094185;28;20053;-78
2021/10/16 12:11:18;;;;;;;29.63;26.40;;;281.70;2278.40;;;;;;5094057;28;20060;-78